createdAt,value
2022-08-31T00:01:37.433Z,100706.75
2022-08-31T00:04:13.357Z,100699.84
2022-08-31T00:06:58.227Z,100703.09
2022-08-31T00:09:37.711Z,100703.53
2022-08-31T00:12:11.475Z,100715.72
2022-08-31T00:14:52.817Z,100714.50
2022-08-31T00:17:34.304Z,100725.13
2022-08-31T00:20:09.614Z,100721.09
2022-08-31T00:23:10.360Z,100716.59
2022-08-31T00:25:42.620Z,100712.06
2022-08-31T00:28:20.888Z,100712.47
2022-08-31T00:30:57.455Z,100708.38
2022-08-31T00:33:32.616Z,100706.38
2022-08-31T00:36:08.888Z,100701.84
2022-08-31T00:38:41.415Z,100699.44
2022-08-31T00:41:20.176Z,100693.75
2022-08-31T00:44:00.829Z,100693.31
2022-08-31T00:46:39.981Z,100688.47
2022-08-31T00:49:21.934Z,100689.69
2022-08-31T00:51:56.686Z,100686.84
2022-08-31T00:54:42.750Z,100687.63
2022-08-31T00:57:24.587Z,100687.22
2022-08-31T01:00:15.439Z,100687.22
2022-08-31T01:02:56.099Z,100688.81
2022-08-31T01:05:29.504Z,100694.84
2022-08-31T01:08:06.806Z,100698.84
2022-08-31T01:10:43.952Z,100698.75
2022-08-31T01:13:20.824Z,100699.81
2022-08-31T01:16:06.392Z,100707.41
2022-08-31T01:18:47.104Z,100709.75
2022-08-31T01:21:41.510Z,100702.75
2022-08-31T01:24:16.161Z,100703.53
2022-08-31T01:26:55.515Z,100706.72
2022-08-31T01:29:33.348Z,100710.44
2022-08-31T01:32:09.070Z,100709.97
2022-08-31T01:34:48.665Z,100706.25
2022-08-31T01:37:29.167Z,100714.75
2022-08-31T01:40:06.705Z,100722.38
2022-08-31T01:42:40.825Z,100719.91
2022-08-31T01:45:13.532Z,100721.13
2022-08-31T01:47:47.789Z,100718.66
2022-08-31T01:50:20.676Z,100725.09
2022-08-31T01:52:53.251Z,100724.28
2022-08-31T01:55:32.603Z,100723.16
2022-08-31T01:58:11.091Z,100720.91
2022-08-31T02:00:47.451Z,100704.81
2022-08-31T02:03:26.653Z,100707.38
2022-08-31T02:08:39.928Z,100712.81
2022-08-31T02:11:14.870Z,100702.63
2022-08-31T02:13:51.271Z,100710.41
2022-08-31T02:16:25.515Z,100707.16
2022-08-31T02:19:01.072Z,100701.53
2022-08-31T02:21:37.400Z,100708.06
2022-08-31T02:24:11.889Z,100705.66
2022-08-31T02:26:51.655Z,100706.06
2022-08-31T02:29:32.615Z,100702.47
2022-08-31T02:32:19.600Z,100707.78
2022-08-31T02:35:02.226Z,100698.09
2022-08-31T02:37:33.721Z,100701.34
2022-08-31T02:40:13.454Z,100706.22
2022-08-31T02:42:53.212Z,100710.69
2022-08-31T02:45:30.017Z,100720.44
2022-08-31T02:48:13.332Z,100713.56
2022-08-31T02:50:51.747Z,100713.19
2022-08-31T02:53:24.851Z,100714.81
2022-08-31T02:55:59.773Z,100710.34
2022-08-31T02:58:39.860Z,100705.88
2022-08-31T03:01:18.491Z,100702.25
2022-08-31T03:03:52.976Z,100713.22
2022-08-31T03:06:37.872Z,100712.41
2022-08-31T03:09:19.360Z,100724.59
2022-08-31T03:11:52.697Z,100723.78
2022-08-31T03:14:29.510Z,100726.63
2022-08-31T03:17:05.911Z,100725.03
2022-08-31T03:19:44.813Z,100729.91
2022-08-31T03:22:18.651Z,100727.88
2022-08-31T03:24:59.911Z,100725.03
2022-08-31T03:27:31.043Z,100726.63
2022-08-31T03:30:08.531Z,100733.19
2022-08-31T03:32:44.136Z,100729.53
2022-08-31T03:35:18.934Z,100735.25
2022-08-31T03:37:51.798Z,100731.22
2022-08-31T03:40:37.248Z,100736.09
2022-08-31T03:43:14.609Z,100739.41
2022-08-31T03:45:46.190Z,100741.03
2022-08-31T03:48:19.983Z,100738.16
2022-08-31T03:50:53.274Z,100734.88
2022-08-31T03:53:31.945Z,100743.78
2022-08-31T03:56:10.463Z,100736.06
2022-08-31T03:58:55.911Z,100737.25
2022-08-31T04:01:49.244Z,100733.97
2022-08-31T04:04:38.922Z,100729.97
2022-08-31T04:07:57.133Z,100729.13
2022-08-31T04:11:01.040Z,100729.56
2022-08-31T04:13:36.340Z,100734.81
2022-08-31T04:16:47.688Z,100741.34
2022-08-31T04:19:41.343Z,100739.34
2022-08-31T04:22:42.299Z,100738.50
2022-08-31T04:25:50.248Z,100735.66
2022-08-31T04:28:23.983Z,100734.50
2022-08-31T04:30:54.930Z,100738.50
2022-08-31T04:33:22.468Z,100737.34
2022-08-31T04:35:50.453Z,100742.63
2022-08-31T04:38:18.218Z,100734.50
2022-08-31T04:40:46.747Z,100738.94
2022-08-31T04:43:17.250Z,100741.00
2022-08-31T04:45:45.912Z,100749.53
2022-08-31T04:48:17.275Z,100745.88
2022-08-31T04:50:50.808Z,100734.50
2022-08-31T04:53:25.046Z,100739.38
2022-08-31T04:55:52.946Z,100748.72
2022-08-31T04:58:23.714Z,100752.38
2022-08-31T05:00:56.434Z,100757.25
2022-08-31T05:03:45.521Z,100755.63
2022-08-31T05:06:16.803Z,100755.22
2022-08-31T05:08:51.895Z,100753.16
2022-08-31T05:11:25.057Z,100759.66
2022-08-31T05:13:57.303Z,100761.69
2022-08-31T05:16:25.579Z,100768.97
2022-08-31T05:18:57.591Z,100767.38
2022-08-31T05:21:30.875Z,100767.81
2022-08-31T05:24:13.353Z,100768.22
2022-08-31T05:26:48.346Z,100774.31
2022-08-31T05:29:28.575Z,100777.94
2022-08-31T05:32:23.035Z,100773.50
2022-08-31T05:34:57.672Z,100772.66
2022-08-31T05:37:34.595Z,100779.19
2022-08-31T05:40:06.787Z,100781.19
2022-08-31T05:42:35.069Z,100778.75
2022-08-31T05:45:03.671Z,100775.50
2022-08-31T05:47:33.718Z,100769.41
2022-08-31T05:50:08.349Z,100767.81
2022-08-31T05:52:41.324Z,100769.03
2022-08-31T05:55:09.290Z,100771.06
2022-08-31T05:57:40.346Z,100782.84
2022-08-31T06:00:13.022Z,100786.47
2022-08-31T06:02:43.950Z,100784.13
2022-08-31T06:05:14.343Z,100785.75
2022-08-31T06:07:47.378Z,100782.53
2022-08-31T06:10:19.515Z,100784.53
2022-08-31T06:12:53.205Z,100791.00
2022-08-31T06:15:26.587Z,100794.56
2022-08-31T06:17:56.982Z,100794.19
2022-08-31T06:20:38.273Z,100794.13
2022-08-31T06:23:07.930Z,100788.91
2022-08-31T06:25:48.553Z,100799.38
2022-08-31T06:28:16.417Z,100795.13
2022-08-31T06:30:54.803Z,100800.81
2022-08-31T06:33:24.945Z,100802.44
2022-08-31T06:36:22.151Z,100800.31
2022-08-31T06:39:26.708Z,100791.88
2022-08-31T06:42:20.913Z,100795.81
2022-08-31T06:45:19.167Z,100795.78
2022-08-31T06:48:32.649Z,100802.22
2022-08-31T06:51:07.329Z,100798.09
2022-08-31T06:53:45.146Z,100800.34
2022-08-31T06:56:40.169Z,100804.78
2022-08-31T06:59:40.286Z,100798.91
2022-08-31T07:02:40.387Z,100811.25
2022-08-31T07:05:24.311Z,100804.31
2022-08-31T07:07:58.225Z,100803.19
2022-08-31T07:10:37.182Z,100802.31
2022-08-31T07:13:13.771Z,100797.13
2022-08-31T07:15:46.917Z,100798.38
2022-08-31T07:18:26.713Z,100800.44
2022-08-31T07:21:12.640Z,100806.16
2022-08-31T07:23:53.208Z,100808.94
2022-08-31T07:26:36.196Z,100799.19
2022-08-31T07:29:19.053Z,100806.84
2022-08-31T07:31:55.998Z,100801.59
2022-08-31T07:34:29.093Z,100807.34
2022-08-31T07:37:42.390Z,100815.84
2022-08-31T07:40:37.687Z,100816.38
2022-08-31T07:43:16.054Z,100818.75
2022-08-31T07:45:51.487Z,100817.09
2022-08-31T07:48:35.498Z,100820.91
2022-08-31T07:51:15.249Z,100819.59
2022-08-31T07:54:13.747Z,100830.94
2022-08-31T07:57:01.629Z,100830.94
2022-08-31T07:59:41.873Z,100829.13
2022-08-31T08:02:18.309Z,100830.44
2022-08-31T08:04:54.161Z,100831.31
2022-08-31T08:07:57.834Z,100829.19
2022-08-31T08:11:07.315Z,100829.91
2022-08-31T08:13:54.717Z,100826.31
2022-08-31T08:16:39.383Z,100825.94
2022-08-31T08:19:24.945Z,100829.22
2022-08-31T08:22:03.730Z,100830.75
2022-08-31T08:24:48.071Z,100826.69
2022-08-31T08:27:58.552Z,100833.06
2022-08-31T08:30:47.307Z,100826.13
2022-08-31T08:33:20.991Z,100835.44
2022-08-31T08:36:05.394Z,100834.25
2022-08-31T08:38:47.672Z,100831.88
2022-08-31T08:41:24.025Z,100834.63
2022-08-31T08:44:01.078Z,100832.16
2022-08-31T08:46:54.913Z,100826.59
2022-08-31T08:49:33.580Z,100833.84
2022-08-31T08:52:23.321Z,100830.59
2022-08-31T08:55:02.196Z,100826.44
2022-08-31T08:57:56.371Z,100821.19
2022-08-31T09:00:30.464Z,100820.41
2022-08-31T09:03:09.719Z,100818.72
2022-08-31T09:06:16.576Z,100817.41
2022-08-31T09:09:00.511Z,100829.22
2022-08-31T09:11:50.406Z,100829.22
2022-08-31T09:14:48.344Z,100833.72
2022-08-31T09:17:28.333Z,100827.25
2022-08-31T09:20:12.317Z,100823.63
2022-08-31T09:22:57.557Z,100825.91
2022-08-31T09:25:45.533Z,100822.38
2022-08-31T09:28:53.016Z,100814.91
2022-08-31T09:31:38.030Z,100816.19
2022-08-31T09:34:30.809Z,100821.31
2022-08-31T09:37:20.198Z,100814.59
2022-08-31T09:39:55.148Z,100806.06
2022-08-31T09:42:37.441Z,100802.50
2022-08-31T09:45:39.952Z,100793.75
2022-08-31T09:48:19.980Z,100792.72
2022-08-31T09:51:02.558Z,100787.84
2022-08-31T09:54:04.384Z,100783.53
2022-08-31T09:56:57.013Z,100776.38
2022-08-31T09:59:53.212Z,100774.59
2022-08-31T10:02:38.266Z,100768.44
2022-08-31T10:05:30.301Z,100755.81
2022-08-31T10:08:19.496Z,100769.44
2022-08-31T10:10:58.886Z,100765.72
2022-08-31T10:14:00.500Z,100766.53
2022-08-31T10:16:48.433Z,100752.72
2022-08-31T10:19:50.112Z,100752.91
2022-08-31T10:22:46.472Z,100754.91
2022-08-31T10:25:47.003Z,100750.25
2022-08-31T10:28:43.556Z,100736.47
2022-08-31T10:31:31.838Z,100727.66
2022-08-31T10:34:50.884Z,100716.06
2022-08-31T10:37:31.685Z,100715.19
2022-08-31T10:40:43.004Z,100707.28
2022-08-31T10:43:33.196Z,100710.88
2022-08-31T10:46:17.779Z,100713.84
2022-08-31T10:48:55.147Z,100705.03
2022-08-31T10:51:47.815Z,100696.34
2022-08-31T10:54:29.289Z,100701.31
2022-08-31T10:57:22.391Z,100694.47
2022-08-31T11:00:03.684Z,100694.28
2022-08-31T11:02:57.518Z,100698.59
2022-08-31T11:05:36.403Z,100704.75
2022-08-31T11:08:57.746Z,100701.09
2022-08-31T11:11:57.720Z,100693.31
2022-08-31T11:14:39.905Z,100693.81
2022-08-31T11:17:51.990Z,100688.38
2022-08-31T11:20:40.063Z,100694.47
2022-08-31T11:23:28.161Z,100691.31
2022-08-31T11:26:29.153Z,100690.78
2022-08-31T11:29:15.448Z,100683.72
2022-08-31T11:31:50.524Z,100697.84
2022-08-31T11:34:47.608Z,100684.41
2022-08-31T11:37:51.258Z,100694.34
2022-08-31T11:40:44.801Z,100688.97
2022-08-31T11:43:31.551Z,100690.31
2022-08-31T11:46:41.810Z,100681.66
2022-08-31T11:49:39.953Z,100668.34
2022-08-31T11:52:30.066Z,100666.75
2022-08-31T11:55:17.654Z,100653.84
2022-08-31T11:58:12.422Z,100656.63
2022-08-31T12:00:58.911Z,100649.34
2022-08-31T12:03:44.692Z,100653.78
2022-08-31T12:06:38.133Z,100666.38
2022-08-31T12:09:24.265Z,100672.56
2022-08-31T12:12:07.712Z,100674.84
2022-08-31T12:14:35.703Z,100683.50
2022-08-31T12:17:33.174Z,100682.19
2022-08-31T12:20:23.389Z,100676.81
2022-08-31T12:23:40.876Z,100669.28
2022-08-31T12:27:01.392Z,100669.13
2022-08-31T12:29:44.220Z,100663.59
2022-08-31T12:32:40.010Z,100660.19
2022-08-31T12:35:16.216Z,100657.22
2022-08-31T12:37:58.820Z,100654.59
2022-08-31T12:40:33.872Z,100645.81
2022-08-31T12:43:24.231Z,100651.25
2022-08-31T12:46:17.093Z,100649.22
2022-08-31T12:49:16.997Z,100632.41
2022-08-31T12:52:15.632Z,100633.50
2022-08-31T12:55:04.465Z,100629.72
2022-08-31T12:58:02.251Z,100638.78
2022-08-31T13:00:42.492Z,100634.38
2022-08-31T13:03:29.346Z,100632.41
2022-08-31T13:06:12.423Z,100630.13
2022-08-31T13:08:52.146Z,100626.44
2022-08-31T13:11:39.919Z,100627.72
2022-08-31T13:14:27.044Z,100620.41
2022-08-31T13:17:03.762Z,100608.75
2022-08-31T13:19:42.019Z,100614.41
2022-08-31T13:22:17.734Z,100605.50
2022-08-31T13:24:53.969Z,100601.63
2022-08-31T13:27:30.095Z,100599.66
2022-08-31T13:30:14.828Z,100596.94
2022-08-31T13:32:57.645Z,100588.69
2022-08-31T13:35:38.199Z,100593.50
2022-08-31T13:38:12.057Z,100583.31
2022-08-31T13:40:52.569Z,100576.34
2022-08-31T13:43:27.895Z,100577.94
2022-08-31T13:46:04.452Z,100567.53
2022-08-31T13:48:43.571Z,100571.00
2022-08-31T13:51:22.082Z,100568.75
2022-08-31T13:53:55.875Z,100562.91
2022-08-31T13:56:51.490Z,100564.09
2022-08-31T13:59:25.440Z,100565.97
2022-08-31T14:02:07.746Z,100553.69
2022-08-31T14:04:58.215Z,100565.38
2022-08-31T14:07:45.855Z,100555.72
2022-08-31T14:10:46.669Z,100567.50
2022-08-31T14:13:14.778Z,100563.72
2022-08-31T14:16:03.137Z,100566.28
2022-08-31T14:18:40.564Z,100552.97
2022-08-31T14:21:24.615Z,100556.78
2022-08-31T14:24:10.560Z,100556.69
2022-08-31T14:26:52.410Z,100551.53
2022-08-31T14:29:34.373Z,100553.53
2022-08-31T14:32:18.953Z,100552.03
2022-08-31T14:34:56.471Z,100557.38
2022-08-31T14:37:33.228Z,100553.72
2022-08-31T14:40:14.282Z,100545.34
2022-08-31T14:42:51.232Z,100538.13
2022-08-31T14:45:24.681Z,100535.66
2022-08-31T14:48:00.330Z,100541.84
2022-08-31T14:50:31.876Z,100534.50
2022-08-31T14:53:14.434Z,100545.88
2022-08-31T14:55:56.586Z,100537.28
2022-08-31T14:58:41.549Z,100536.63
2022-08-31T15:01:23.112Z,100544.38
2022-08-31T15:03:56.371Z,100539.44
2022-08-31T15:06:29.982Z,100539.13
2022-08-31T15:09:07.646Z,100534.69
2022-08-31T15:11:41.233Z,100531.56
2022-08-31T15:14:14.670Z,100534.34
2022-08-31T15:16:54.961Z,100536.50
2022-08-31T15:19:29.028Z,100524.03
2022-08-31T15:22:05.767Z,100526.16
2022-08-31T15:24:54.031Z,100525.38
2022-08-31T15:27:31.846Z,100518.53
2022-08-31T15:30:11.826Z,100518.22
2022-08-31T15:32:46.945Z,100512.50
2022-08-31T15:35:30.351Z,100517.50
2022-08-31T15:38:10.660Z,100514.63
2022-08-31T15:40:41.184Z,100514.19
2022-08-31T15:43:21.501Z,100519.50
2022-08-31T15:46:05.138Z,100504.47
2022-08-31T15:48:45.976Z,100510.97
2022-08-31T15:51:28.073Z,100503.28
2022-08-31T15:54:21.705Z,100506.16
2022-08-31T15:56:58.752Z,100512.19
2022-08-31T15:59:35.123Z,100506.56
2022-08-31T16:02:09.305Z,100508.16
2022-08-31T16:04:46.298Z,100489.56
2022-08-31T16:07:24.874Z,100501.34
2022-08-31T16:09:53.107Z,100492.03
2022-08-31T16:12:24.115Z,100497.34
2022-08-31T16:14:55.339Z,100489.22
2022-08-31T16:17:33.265Z,100486.25
2022-08-31T16:20:04.743Z,100489.00
2022-08-31T16:22:47.160Z,100476.03
2022-08-31T16:25:17.744Z,100483.63
2022-08-31T16:27:57.733Z,100482.34
2022-08-31T16:30:32.531Z,100476.69
2022-08-31T16:33:05.530Z,100481.13
2022-08-31T16:35:40.086Z,100474.22
2022-08-31T16:38:13.423Z,100485.16
2022-08-31T16:40:53.198Z,100486.34
2022-08-31T16:43:21.868Z,100495.25
2022-08-31T16:45:55.531Z,100495.25
2022-08-31T16:48:45.948Z,100499.28
2022-08-31T16:51:18.223Z,100500.13
2022-08-31T16:53:54.969Z,100501.34
2022-08-31T16:56:29.048Z,100513.94
2022-08-31T16:59:00.894Z,100509.03
2022-08-31T17:01:34.086Z,100504.59
2022-08-31T17:04:48.251Z,100509.47
2022-08-31T17:07:19.836Z,100513.13
2022-08-31T17:09:47.975Z,100518.38
2022-08-31T17:12:19.299Z,100519.22
2022-08-31T17:14:52.497Z,100521.25
2022-08-31T17:17:25.589Z,100523.69
2022-08-31T17:19:55.830Z,100523.28
2022-08-31T17:22:31.676Z,100524.13
2022-08-31T17:25:04.734Z,100522.09
2022-08-31T17:27:34.650Z,100526.53
2022-08-31T17:30:07.960Z,100533.88
2022-08-31T17:32:45.192Z,100537.56
2022-08-31T17:35:19.308Z,100547.66
2022-08-31T17:37:50.086Z,100538.34
2022-08-31T17:40:18.349Z,100548.91
2022-08-31T17:42:46.346Z,100547.25
2022-08-31T17:45:15.638Z,100547.66
2022-08-31T17:47:46.407Z,100548.50
2022-08-31T17:50:20.136Z,100556.63
2022-08-31T17:52:50.249Z,100553.00
2022-08-31T17:55:20.472Z,100557.47
2022-08-31T17:57:51.187Z,100558.66
2022-08-31T18:00:24.069Z,100553.78
2022-08-31T18:02:57.110Z,100545.28
2022-08-31T18:05:27.816Z,100546.94
2022-08-31T18:07:58.092Z,100545.72
2022-08-31T18:10:32.012Z,100547.75
2022-08-31T18:13:03.371Z,100538.44
2022-08-31T18:15:33.979Z,100540.47
2022-08-31T18:18:04.989Z,100543.75
2022-08-31T18:20:41.196Z,100541.31
2022-08-31T18:23:17.262Z,100544.56
2022-08-31T18:25:49.865Z,100555.91
2022-08-31T18:28:23.465Z,100561.19
2022-08-31T18:31:04.284Z,100554.31
2022-08-31T18:33:33.216Z,100545.78
2022-08-31T18:36:10.613Z,100561.19
2022-08-31T18:38:43.976Z,100566.84
2022-08-31T18:41:31.862Z,100570.53
2022-08-31T18:44:20.803Z,100578.22
2022-08-31T18:46:51.318Z,100579.88
2022-08-31T18:49:22.226Z,100569.38
2022-08-31T18:51:57.118Z,100581.91
2022-08-31T18:54:24.934Z,100583.13
2022-08-31T18:56:55.849Z,100582.72
2022-08-31T18:59:24.441Z,100580.72
2022-08-31T19:01:55.061Z,100586.34
2022-08-31T19:04:25.799Z,100593.25
2022-08-31T19:06:58.200Z,100591.25
2022-08-31T19:09:32.790Z,100592.47
2022-08-31T19:12:05.007Z,100590.06
2022-08-31T19:14:40.727Z,100584.38
2022-08-31T19:17:12.515Z,100592.09
2022-08-31T19:19:43.161Z,100595.31
2022-08-31T19:22:12.566Z,100587.22
2022-08-31T19:24:46.136Z,100600.97
2022-08-31T19:27:18.122Z,100594.94
2022-08-31T19:29:51.028Z,100600.22
2022-08-31T19:32:18.638Z,100600.22
2022-08-31T19:34:50.220Z,100603.47
2022-08-31T19:37:23.388Z,100595.78
2022-08-31T19:39:54.032Z,100602.66
2022-08-31T19:42:59.637Z,100600.63
2022-08-31T19:45:23.921Z,100605.47
2022-08-31T19:48:01.179Z,100599.00
2022-08-31T19:50:34.984Z,100605.91
2022-08-31T19:53:06.331Z,100606.72
2022-08-31T19:55:36.341Z,100609.16
2022-08-31T19:58:10.063Z,100619.69
2022-08-31T20:00:40.753Z,100608.34
2022-08-31T20:03:13.437Z,100595.41
2022-08-31T20:05:43.223Z,100603.09
2022-08-31T20:08:17.115Z,100590.97
2022-08-31T20:10:46.538Z,100600.69
2022-08-31T20:13:25.253Z,100600.28
2022-08-31T20:15:59.109Z,100604.72
2022-08-31T20:18:41.813Z,100601.06
2022-08-31T20:21:18.241Z,100598.25
2022-08-31T20:24:03.428Z,100592.97
2022-08-31T20:26:36.386Z,100614.47
2022-08-31T20:29:10.861Z,100600.69
2022-08-31T20:31:45.032Z,100607.59
2022-08-31T20:34:21.829Z,100605.94
2022-08-31T20:36:58.540Z,100608.78
2022-08-31T20:39:32.477Z,100605.53
2022-08-31T20:42:07.163Z,100603.91
2022-08-31T20:44:41.151Z,100622.97
2022-08-31T20:47:31.764Z,100616.50
2022-08-31T20:50:06.926Z,100616.91
2022-08-31T20:52:39.168Z,100614.06
2022-08-31T20:55:12.422Z,100620.53
2022-08-31T20:57:41.373Z,100614.06
2022-08-31T21:00:14.777Z,100616.53
2022-08-31T21:02:49.923Z,100626.22
2022-08-31T21:08:15.987Z,100614.03
2022-08-31T21:10:46.492Z,100606.31
2022-08-31T21:13:18.359Z,100611.53
2022-08-31T21:15:48.619Z,100605.78
2022-08-31T21:18:17.522Z,100608.22
2022-08-31T21:20:56.955Z,100608.97
2022-08-31T21:23:32.107Z,100600.84
2022-08-31T21:26:10.702Z,100601.59
2022-08-31T21:28:40.380Z,100595.88
2022-08-31T21:31:16.543Z,100599.47
2022-08-31T21:34:02.150Z,100597.84
2022-08-31T21:36:35.799Z,100590.13
2022-08-31T21:39:07.249Z,100601.44
2022-08-31T21:41:39.382Z,100606.31
2022-08-31T21:44:16.503Z,100603.06
2022-08-31T21:46:51.568Z,100601.44
2022-08-31T21:49:26.655Z,100596.88
2022-08-31T21:51:59.936Z,100602.91
2022-08-31T21:54:30.650Z,100588.66
2022-08-31T21:57:04.244Z,100593.59
2022-08-31T21:59:36.241Z,100589.25
2022-08-31T22:02:11.206Z,100590.22
2022-08-31T22:04:44.610Z,100587.84
2022-08-31T22:07:15.565Z,100586.31
2022-08-31T22:09:47.031Z,100586.38
2022-08-31T22:12:18.421Z,100585.19
2022-08-31T22:14:52.184Z,100590.94
2022-08-31T22:17:48.247Z,100591.34
2022-08-31T22:20:22.216Z,100593.38
2022-08-31T22:22:56.094Z,100592.97
2022-08-31T22:25:30.286Z,100584.09
2022-08-31T22:28:10.304Z,100586.13
2022-08-31T22:30:41.480Z,100583.72
2022-08-31T22:33:15.725Z,100594.25
2022-08-31T22:35:53.841Z,100585.34
2022-08-31T22:38:21.432Z,100581.75
2022-08-31T22:40:50.703Z,100589.81
2022-08-31T22:43:24.221Z,100588.66
2022-08-31T22:45:51.783Z,100582.97
2022-08-31T22:48:22.208Z,100581.75
2022-08-31T22:50:51.369Z,100589.84
2022-08-31T22:53:25.540Z,100577.75
2022-08-31T22:55:56.109Z,100574.09
2022-08-31T22:58:26.513Z,100564.00
2022-08-31T23:00:57.438Z,100574.50
2022-08-31T23:03:27.178Z,100580.16
2022-08-31T23:06:01.419Z,100572.91
2022-08-31T23:08:32.508Z,100568.03
2022-08-31T23:11:02.927Z,100574.94
2022-08-31T23:13:54.866Z,100579.38
2022-08-31T23:16:30.175Z,100581.38
2022-08-31T23:19:05.025Z,100565.59
2022-08-31T23:21:43.221Z,100564.38
2022-08-31T23:24:16.916Z,100562.00
2022-08-31T23:26:46.176Z,100564.00
2022-08-31T23:29:20.024Z,100570.50
2022-08-31T23:31:53.852Z,100559.56
2022-08-31T23:34:24.203Z,100557.13
2022-08-31T23:36:53.348Z,100551.03
2022-08-31T23:39:26.306Z,100553.88
2022-08-31T23:41:56.494Z,100548.63
2022-08-31T23:44:30.202Z,100542.53
2022-08-31T23:47:06.373Z,100538.09
2022-08-31T23:49:38.449Z,100540.50
2022-08-31T23:52:06.954Z,100534.44
2022-08-31T23:54:38.479Z,100531.63
2022-08-31T23:57:31.564Z,100546.59
